createdAt,value
2022-08-28T00:02:03.519Z,27.43
2022-08-28T00:04:30.946Z,27.38
2022-08-28T00:06:58.668Z,27.34
2022-08-28T00:09:26.568Z,27.45
2022-08-28T00:11:56.934Z,27.49
2022-08-28T00:14:25.876Z,27.52
2022-08-28T00:16:53.248Z,27.48
2022-08-28T00:19:22.944Z,27.47
2022-08-28T00:21:51.161Z,27.55
2022-08-28T00:24:18.692Z,27.50
2022-08-28T00:27:04.868Z,27.54
2022-08-28T00:29:32.930Z,27.46
2022-08-28T00:32:01.114Z,27.48
2022-08-28T00:34:33.356Z,27.40
2022-08-28T00:37:01.795Z,27.44
2022-08-28T00:39:29.563Z,27.43
2022-08-28T00:41:58.004Z,27.45
2022-08-28T00:44:28.876Z,27.27
2022-08-28T00:46:59.445Z,27.31
2022-08-28T00:49:34.133Z,27.14
2022-08-28T00:52:12.661Z,27.19
2022-08-28T00:54:58.426Z,27.12
2022-08-28T00:57:38.959Z,27.13
2022-08-28T01:00:13.276Z,27.20
2022-08-28T01:02:42.121Z,27.22
2022-08-28T01:05:10.187Z,27.23
2022-08-28T01:07:38.607Z,27.19
2022-08-28T01:10:10.398Z,27.20
2022-08-28T01:12:38.297Z,27.23
2022-08-28T01:15:13.968Z,27.31
2022-08-28T01:17:47.830Z,27.24
2022-08-28T01:20:19.456Z,27.18
2022-08-28T01:23:05.314Z,27.06
2022-08-28T01:25:35.401Z,27.05
2022-08-28T01:28:05.954Z,27.04
2022-08-28T01:30:34.207Z,26.95
2022-08-28T01:33:01.664Z,26.85
2022-08-28T01:35:34.615Z,26.90
2022-08-28T01:38:02.241Z,26.93
2022-08-28T01:40:35.215Z,26.83
2022-08-28T01:43:19.811Z,26.94
2022-08-28T01:45:53.052Z,26.89
2022-08-28T01:48:22.399Z,26.74
2022-08-28T01:50:50.917Z,26.75
2022-08-28T01:53:20.709Z,26.76
2022-08-28T01:55:53.635Z,26.75
2022-08-28T01:58:23.082Z,26.72
2022-08-28T02:00:53.783Z,26.75
2022-08-28T02:03:23.818Z,26.75
2022-08-28T02:05:51.388Z,26.74
2022-08-28T02:08:18.579Z,26.78
2022-08-28T02:10:46.415Z,26.70
2022-08-28T02:13:14.249Z,26.75
2022-08-28T02:15:43.201Z,26.67
2022-08-28T02:18:11.054Z,26.80
2022-08-28T02:20:38.985Z,26.50
2022-08-28T02:23:06.885Z,26.52
2022-08-28T02:25:35.526Z,26.52
2022-08-28T02:28:02.891Z,26.51
2022-08-28T02:30:32.046Z,26.61
2022-08-28T02:32:59.476Z,26.46
2022-08-28T02:35:26.858Z,26.50
2022-08-28T02:37:55.416Z,26.50
2022-08-28T02:40:24.071Z,26.42
2022-08-28T02:42:52.351Z,26.21
2022-08-28T02:45:20.327Z,26.20
2022-08-28T02:47:51.782Z,26.04
2022-08-28T02:50:22.699Z,25.89
2022-08-28T02:52:51.955Z,25.76
2022-08-28T02:55:21.437Z,25.74
2022-08-28T02:57:48.949Z,25.68
2022-08-28T03:00:20.387Z,25.63
2022-08-28T03:02:49.796Z,25.73
2022-08-28T03:05:21.211Z,25.81
2022-08-28T03:07:49.186Z,25.88
2022-08-28T03:10:17.406Z,25.90
2022-08-28T03:12:44.638Z,25.89
2022-08-28T03:15:12.562Z,25.78
2022-08-28T03:17:40.272Z,25.73
2022-08-28T03:20:11.366Z,25.92
2022-08-28T03:22:59.066Z,25.88
2022-08-28T03:25:27.301Z,25.89
2022-08-28T03:27:55.205Z,25.93
2022-08-28T03:30:23.887Z,25.71
2022-08-28T03:32:51.670Z,25.79
2022-08-28T03:35:19.139Z,25.90
2022-08-28T03:37:46.750Z,25.80
2022-08-28T03:40:14.955Z,25.82
2022-08-28T03:42:42.283Z,25.92
2022-08-28T03:45:18.996Z,25.95
2022-08-28T03:47:46.830Z,25.99
2022-08-28T03:50:14.408Z,25.90
2022-08-28T03:52:41.891Z,26.03
2022-08-28T03:55:12.251Z,26.08
2022-08-28T03:57:39.972Z,26.07
2022-08-28T04:00:11.189Z,26.12
2022-08-28T04:02:42.677Z,26.27
2022-08-28T04:05:11.290Z,26.28
2022-08-28T04:07:39.565Z,26.31
2022-08-28T04:10:07.528Z,26.10
2022-08-28T04:12:36.189Z,25.84
2022-08-28T04:15:07.166Z,25.79
2022-08-28T04:17:37.068Z,25.76
2022-08-28T04:20:05.056Z,25.99
2022-08-28T04:22:33.210Z,26.04
2022-08-28T04:25:01.325Z,26.08
2022-08-28T04:27:28.716Z,26.23
2022-08-28T04:29:56.096Z,26.20
2022-08-28T04:32:23.494Z,26.22
2022-08-28T04:34:51.579Z,26.05
2022-08-28T04:37:19.063Z,25.94
2022-08-28T04:39:46.296Z,26.02
2022-08-28T04:42:14.984Z,25.98
2022-08-28T04:44:42.460Z,26.00
2022-08-28T04:47:09.684Z,26.07
2022-08-28T04:49:37.295Z,25.96
2022-08-28T04:52:05.119Z,25.95
2022-08-28T04:54:35.979Z,26.05
2022-08-28T04:57:06.429Z,26.08
2022-08-28T04:59:33.815Z,26.05
2022-08-28T05:02:01.691Z,26.09
2022-08-28T05:04:29.107Z,26.05
2022-08-28T05:06:56.242Z,26.10
2022-08-28T05:09:23.461Z,26.24
2022-08-28T05:11:51.572Z,26.09
2022-08-28T05:14:20.354Z,26.04
2022-08-28T05:16:57.889Z,26.19
2022-08-28T05:19:28.069Z,26.17
2022-08-28T05:21:55.627Z,26.27
2022-08-28T05:24:22.879Z,26.34
2022-08-28T05:26:50.352Z,26.32
2022-08-28T05:29:18.113Z,26.39
2022-08-28T05:31:46.420Z,26.31
2022-08-28T05:34:15.301Z,26.44
2022-08-28T05:36:42.976Z,26.50
2022-08-28T05:39:13.905Z,26.57
2022-08-28T05:41:44.178Z,26.59
2022-08-28T05:44:15.656Z,26.42
2022-08-28T05:46:47.786Z,26.54
2022-08-28T05:49:17.964Z,26.57
2022-08-28T05:51:46.410Z,26.68
2022-08-28T05:54:15.056Z,26.77
2022-08-28T05:56:44.317Z,26.88
2022-08-28T05:59:13.364Z,26.87
2022-08-28T06:01:50.964Z,26.90
2022-08-28T06:04:27.569Z,27.02
2022-08-28T06:06:55.698Z,27.00
2022-08-28T06:09:29.592Z,27.10
2022-08-28T06:11:59.839Z,27.16
2022-08-28T06:14:27.780Z,27.27
2022-08-28T06:16:56.639Z,27.36
2022-08-28T06:19:26.870Z,27.41
2022-08-28T06:22:01.089Z,27.35
2022-08-28T06:24:34.692Z,27.38
2022-08-28T06:27:02.158Z,27.33
2022-08-28T06:29:29.922Z,27.41
2022-08-28T06:32:01.137Z,27.50
2022-08-28T06:34:29.769Z,27.57
2022-08-28T06:36:56.979Z,27.57
2022-08-28T06:39:24.624Z,27.47
2022-08-28T06:41:51.970Z,27.63
2022-08-28T06:44:21.705Z,27.62
2022-08-28T06:46:52.198Z,27.64
2022-08-28T06:49:19.491Z,27.57
2022-08-28T06:51:46.900Z,27.52
2022-08-28T06:54:19.772Z,27.61
2022-08-28T06:56:49.899Z,27.61
2022-08-28T06:59:17.276Z,27.72
2022-08-28T07:01:44.559Z,27.75
2022-08-28T07:04:14.859Z,27.73
2022-08-28T07:06:47.067Z,27.63
2022-08-28T07:09:14.830Z,27.61
2022-08-28T07:11:46.821Z,27.81
2022-08-28T07:14:14.110Z,27.85
2022-08-28T07:16:42.263Z,27.95
2022-08-28T07:19:12.186Z,27.83
2022-08-28T07:21:42.238Z,27.73
2022-08-28T07:24:12.632Z,27.84
2022-08-28T07:26:41.229Z,27.95
2022-08-28T07:29:10.835Z,28.07
2022-08-28T07:31:50.848Z,28.16
2022-08-28T07:34:19.965Z,28.11
2022-08-28T07:36:48.330Z,28.06
2022-08-28T07:39:16.261Z,28.13
2022-08-28T07:41:47.258Z,28.09
2022-08-28T07:44:33.866Z,28.22
2022-08-28T07:47:04.442Z,28.19
2022-08-28T07:49:34.175Z,28.13
2022-08-28T07:52:02.018Z,28.24
2022-08-28T07:54:29.378Z,28.26
2022-08-28T07:56:56.777Z,28.41
2022-08-28T07:59:24.467Z,28.48
2022-08-28T08:01:52.383Z,28.36
2022-08-28T08:04:21.869Z,28.53
2022-08-28T08:06:54.380Z,28.65
2022-08-28T08:09:24.498Z,28.74
2022-08-28T08:11:51.953Z,28.81
2022-08-28T08:14:19.241Z,28.93
2022-08-28T08:16:48.139Z,29.04
2022-08-28T08:19:16.816Z,29.17
2022-08-28T08:21:46.665Z,29.25
2022-08-28T08:24:21.582Z,29.33
2022-08-28T08:26:58.889Z,29.33
2022-08-28T08:29:30.033Z,29.42
2022-08-28T08:31:58.972Z,29.54
2022-08-28T08:34:26.417Z,29.60
2022-08-28T08:36:54.405Z,29.63
2022-08-28T08:39:21.603Z,29.67
2022-08-28T08:41:53.388Z,29.82
2022-08-28T08:44:34.022Z,29.86
2022-08-28T08:47:20.036Z,29.90
2022-08-28T08:49:58.773Z,29.93
2022-08-28T08:52:51.386Z,30.03
2022-08-28T08:55:31.605Z,29.97
2022-08-28T08:58:08.195Z,30.10
2022-08-28T09:00:52.502Z,30.16
2022-08-28T09:03:44.307Z,30.16
2022-08-28T09:06:26.004Z,30.26
2022-08-28T09:08:59.343Z,30.28
2022-08-28T09:12:08.366Z,30.32
2022-08-28T09:14:54.009Z,30.42
2022-08-28T09:17:27.787Z,30.40
2022-08-28T09:19:55.313Z,30.44
2022-08-28T09:22:22.974Z,30.47
2022-08-28T09:24:50.455Z,30.71
2022-08-28T09:27:26.951Z,30.80
2022-08-28T09:30:07.220Z,30.84
2022-08-28T09:32:56.535Z,30.90
2022-08-28T09:35:29.934Z,30.97
2022-08-28T09:38:18.406Z,31.02
2022-08-28T09:41:04.529Z,31.02
2022-08-28T09:43:33.780Z,31.08
2022-08-28T09:46:08.335Z,31.12
2022-08-28T09:48:47.136Z,31.20
2022-08-28T09:51:29.776Z,31.20
2022-08-28T09:54:02.932Z,31.25
2022-08-28T09:56:40.276Z,31.29
2022-08-28T09:59:33.930Z,31.44
2022-08-28T10:02:43.034Z,31.51
2022-08-28T10:05:18.785Z,31.49
2022-08-28T10:08:04.727Z,31.62
2022-08-28T10:10:37.336Z,31.73
2022-08-28T10:13:18.194Z,31.81
2022-08-28T10:16:04.150Z,31.95
2022-08-28T10:18:44.567Z,31.97
2022-08-28T10:21:24.404Z,31.99
2022-08-28T10:24:26.469Z,32.15
2022-08-28T10:27:12.176Z,32.04
2022-08-28T10:30:08.892Z,32.08
2022-08-28T10:32:56.863Z,32.15
2022-08-28T10:35:40.297Z,32.16
2022-08-28T10:38:18.197Z,32.36
2022-08-28T10:41:05.064Z,32.51
2022-08-28T10:43:38.420Z,32.71
2022-08-28T10:46:13.714Z,32.76
2022-08-28T10:48:46.610Z,32.88
2022-08-28T10:51:34.829Z,32.91
2022-08-28T10:54:19.408Z,32.98
2022-08-28T10:56:56.648Z,32.97
2022-08-28T10:59:28.249Z,32.99
2022-08-28T11:01:56.905Z,32.98
2022-08-28T11:04:25.856Z,33.11
2022-08-28T11:07:03.825Z,33.38
2022-08-28T11:09:35.549Z,33.47
2022-08-28T11:12:10.313Z,33.61
2022-08-28T11:14:48.412Z,33.76
2022-08-28T11:17:23.011Z,33.94
2022-08-28T11:20:22.916Z,33.93
2022-08-28T11:22:58.088Z,33.94
2022-08-28T11:25:59.907Z,33.90
2022-08-28T11:28:36.726Z,33.93
2022-08-28T11:31:06.957Z,33.91
2022-08-28T11:33:44.907Z,33.97
2022-08-28T11:36:32.861Z,33.97
2022-08-28T11:39:21.000Z,33.87
2022-08-28T11:42:14.028Z,33.82
2022-08-28T11:44:46.115Z,33.74
2022-08-28T11:47:32.097Z,33.75
2022-08-28T11:50:33.748Z,33.82
2022-08-28T11:53:18.760Z,33.82
2022-08-28T11:56:07.368Z,33.87
2022-08-28T11:58:54.702Z,33.87
2022-08-28T12:01:32.314Z,33.91
2022-08-28T12:04:08.096Z,33.87
2022-08-28T12:06:44.793Z,33.88
2022-08-28T12:09:31.726Z,33.62
2022-08-28T12:12:05.232Z,33.56
2022-08-28T12:14:38.494Z,33.70
2022-08-28T12:17:06.120Z,33.51
2022-08-28T12:19:52.553Z,33.43
2022-08-28T12:22:39.739Z,33.45
2022-08-28T12:25:18.694Z,33.47
2022-08-28T12:27:46.182Z,33.46
2022-08-28T12:30:28.609Z,33.47
2022-08-28T12:33:03.143Z,33.51
2022-08-28T12:35:30.601Z,33.49
2022-08-28T12:38:02.236Z,33.62
2022-08-28T12:40:41.848Z,33.74
2022-08-28T12:43:15.238Z,33.71
2022-08-28T12:45:45.623Z,33.88
2022-08-28T12:48:18.766Z,33.78
2022-08-28T12:50:46.247Z,33.77
2022-08-28T12:53:16.847Z,33.75
2022-08-28T12:55:46.505Z,33.75
2022-08-28T12:58:28.099Z,33.84
2022-08-28T13:01:06.877Z,33.86
2022-08-28T13:03:34.305Z,33.79
2022-08-28T13:06:07.786Z,33.81
2022-08-28T13:08:36.989Z,33.84
2022-08-28T13:11:05.056Z,33.86
2022-08-28T13:13:45.584Z,33.89
2022-08-28T13:16:35.770Z,33.82
2022-08-28T13:19:06.754Z,33.87
2022-08-28T13:21:35.207Z,33.86
2022-08-28T13:24:23.039Z,33.90
2022-08-28T13:27:15.894Z,33.86
2022-08-28T13:30:04.330Z,33.82
2022-08-28T13:32:34.481Z,33.82
2022-08-28T13:35:21.921Z,33.84
2022-08-28T13:37:50.762Z,33.74
2022-08-28T13:43:16.656Z,33.64
2022-08-28T13:45:46.434Z,33.59
2022-08-28T13:48:17.029Z,33.48
2022-08-28T13:50:49.995Z,33.53
2022-08-28T13:53:20.452Z,33.51
2022-08-28T13:55:51.344Z,33.42
2022-08-28T13:58:18.820Z,33.43
2022-08-28T14:00:48.628Z,33.42
2022-08-28T14:03:35.354Z,33.45
2022-08-28T14:06:14.315Z,33.49
2022-08-28T14:08:44.297Z,33.48
2022-08-28T14:11:14.247Z,33.46
2022-08-28T14:13:47.331Z,33.53
2022-08-28T14:16:25.844Z,33.58
2022-08-28T14:18:53.532Z,33.52
2022-08-28T14:21:22.568Z,33.56
2022-08-28T14:23:50.329Z,33.51
2022-08-28T14:26:17.596Z,33.47
2022-08-28T14:28:45.452Z,33.49
2022-08-28T14:31:14.748Z,33.39
2022-08-28T14:33:45.384Z,33.47
2022-08-28T14:36:24.060Z,33.45
2022-08-28T14:38:54.291Z,33.52
2022-08-28T14:41:23.840Z,33.49
2022-08-28T14:43:51.253Z,33.41
2022-08-28T14:46:24.407Z,33.43
2022-08-28T14:48:52.751Z,33.43
2022-08-28T14:51:19.902Z,33.44
2022-08-28T14:53:47.168Z,33.42
2022-08-28T14:56:14.724Z,33.44
2022-08-28T14:58:41.995Z,33.38
2022-08-28T15:01:09.443Z,33.36
2022-08-28T15:03:37.934Z,33.37
2022-08-28T15:06:08.706Z,33.37
2022-08-28T15:08:37.411Z,33.35
2022-08-28T15:11:10.332Z,33.35
2022-08-28T15:13:38.292Z,33.28
2022-08-28T15:16:15.744Z,33.24
2022-08-28T15:18:45.769Z,33.26
2022-08-28T15:21:28.190Z,33.22
2022-08-28T15:24:00.016Z,33.21
2022-08-28T15:26:28.108Z,33.15
2022-08-28T15:29:02.473Z,33.16
2022-08-28T15:31:31.710Z,33.13
2022-08-28T15:34:03.024Z,33.10
2022-08-28T15:36:30.351Z,33.11
2022-08-28T15:39:18.627Z,33.06
2022-08-28T15:41:47.128Z,33.06
2022-08-28T15:44:15.134Z,32.99
2022-08-28T15:46:49.446Z,32.97
2022-08-28T15:49:18.568Z,32.95
2022-08-28T15:51:45.821Z,32.87
2022-08-28T15:54:13.403Z,32.85
2022-08-28T15:56:41.791Z,32.66
2022-08-28T15:59:10.805Z,32.81
2022-08-28T16:01:38.821Z,32.78
2022-08-28T16:04:07.075Z,32.72
2022-08-28T16:06:35.675Z,32.69
2022-08-28T16:09:05.310Z,32.71
2022-08-28T16:11:33.931Z,32.64
2022-08-28T16:14:06.678Z,32.62
2022-08-28T16:16:34.645Z,32.60
2022-08-28T16:19:02.202Z,32.58
2022-08-28T16:21:29.764Z,32.55
2022-08-28T16:23:56.978Z,32.42
2022-08-28T16:26:24.619Z,32.46
2022-08-28T16:28:53.454Z,32.38
2022-08-28T16:31:21.385Z,32.37
2022-08-28T16:33:49.932Z,32.33
2022-08-28T16:36:18.583Z,32.28
2022-08-28T16:38:48.079Z,32.30
2022-08-28T16:41:23.752Z,32.29
2022-08-28T16:43:55.274Z,32.24
2022-08-28T16:46:26.882Z,32.22
2022-08-28T16:48:54.829Z,32.19
2022-08-28T16:51:22.732Z,32.16
2022-08-28T16:53:49.975Z,32.15
2022-08-28T16:56:18.237Z,32.14
2022-08-28T16:58:46.226Z,32.10
2022-08-28T17:01:14.418Z,32.05
2022-08-28T17:03:42.215Z,32.02
2022-08-28T17:06:20.286Z,32.02
2022-08-28T17:08:48.292Z,31.93
2022-08-28T17:11:16.889Z,31.98
2022-08-28T17:13:44.547Z,31.98
2022-08-28T17:16:13.248Z,31.94
2022-08-28T17:18:48.163Z,31.94
2022-08-28T17:21:38.853Z,31.82
2022-08-28T17:24:07.023Z,31.82
2022-08-28T17:26:34.378Z,31.79
2022-08-28T17:29:03.036Z,31.76
2022-08-28T17:31:30.391Z,31.82
2022-08-28T17:33:57.822Z,31.83
2022-08-28T17:36:33.282Z,31.74
2022-08-28T17:39:08.283Z,31.68
2022-08-28T17:41:35.823Z,31.66
2022-08-28T17:44:03.561Z,31.58
2022-08-28T17:46:36.750Z,31.53
2022-08-28T17:49:06.921Z,31.53
2022-08-28T17:51:43.314Z,31.45
2022-08-28T17:54:14.018Z,31.49
2022-08-28T17:56:42.675Z,31.44
2022-08-28T17:59:12.095Z,31.32
2022-08-28T18:01:39.801Z,31.23
2022-08-28T18:04:07.271Z,31.31
2022-08-28T18:06:34.928Z,31.35
2022-08-28T18:09:02.531Z,31.29
2022-08-28T18:11:29.865Z,31.28
2022-08-28T18:13:57.538Z,31.23
2022-08-28T18:16:30.395Z,31.24
2022-08-28T18:19:00.110Z,31.19
2022-08-28T18:21:31.845Z,31.15
2022-08-28T18:23:59.096Z,31.12
2022-08-28T18:26:26.519Z,31.14
2022-08-28T18:28:53.957Z,31.12
2022-08-28T18:31:21.126Z,31.15
2022-08-28T18:33:48.360Z,31.20
2022-08-28T18:36:16.852Z,31.12
2022-08-28T18:38:45.154Z,31.12
2022-08-28T18:41:12.544Z,31.04
2022-08-28T18:43:42.204Z,31.04
2022-08-28T18:46:10.360Z,31.01
2022-08-28T18:48:38.266Z,30.91
2022-08-28T18:51:07.918Z,30.85
2022-08-28T18:53:35.687Z,30.76
2022-08-28T18:56:03.896Z,30.73
2022-08-28T18:58:33.045Z,30.66
2022-08-28T19:01:02.355Z,30.57
2022-08-28T19:03:30.233Z,30.50
2022-08-28T19:05:59.014Z,30.42
2022-08-28T19:08:27.267Z,30.37
2022-08-28T19:10:54.681Z,30.31
2022-08-28T19:13:22.221Z,30.27
2022-08-28T19:15:53.326Z,30.22
2022-08-28T19:18:20.776Z,30.17
2022-08-28T19:20:48.428Z,30.24
2022-08-28T19:23:17.758Z,30.17
2022-08-28T19:25:46.200Z,30.14
2022-08-28T19:28:14.034Z,29.93
2022-08-28T19:30:42.295Z,29.71
2022-08-28T19:33:12.935Z,29.68
2022-08-28T19:35:41.107Z,29.59
2022-08-28T19:38:08.667Z,29.38
2022-08-28T19:40:36.140Z,29.43
2022-08-28T19:43:03.304Z,29.40
2022-08-28T19:45:33.232Z,29.34
2022-08-28T19:48:00.895Z,29.27
2022-08-28T19:50:28.122Z,29.15
2022-08-28T19:52:55.315Z,29.18
2022-08-28T19:55:26.190Z,29.24
2022-08-28T19:57:54.476Z,29.26
2022-08-28T20:00:26.015Z,29.32
2022-08-28T20:02:53.467Z,29.40
2022-08-28T20:05:22.038Z,29.56
2022-08-28T20:07:50.273Z,29.55
2022-08-28T20:10:18.336Z,29.47
2022-08-28T20:12:48.640Z,29.51
2022-08-28T20:15:19.438Z,29.43
2022-08-28T20:17:49.872Z,29.31
2022-08-28T20:20:20.078Z,29.29
2022-08-28T20:22:47.479Z,29.19
2022-08-28T20:25:18.207Z,29.21
2022-08-28T20:27:45.662Z,29.11
2022-08-28T20:30:13.285Z,29.04
2022-08-28T20:32:41.387Z,29.05
2022-08-28T20:35:12.039Z,29.01
2022-08-28T20:37:42.644Z,28.99
2022-08-28T20:40:14.806Z,28.96
2022-08-28T20:42:42.253Z,28.82
2022-08-28T20:45:10.239Z,28.94
2022-08-28T20:47:37.606Z,28.86
2022-08-28T20:50:05.695Z,28.92
2022-08-28T20:52:33.436Z,28.91
2022-08-28T20:55:00.738Z,28.89
2022-08-28T20:57:30.263Z,29.02
2022-08-28T20:59:58.753Z,29.00
2022-08-28T21:02:29.340Z,28.95
2022-08-28T21:04:56.845Z,28.96
2022-08-28T21:07:25.357Z,28.98
2022-08-28T21:10:05.589Z,28.97
2022-08-28T21:12:39.226Z,28.94
2022-08-28T21:15:10.073Z,28.87
2022-08-28T21:17:37.611Z,28.89
2022-08-28T21:20:10.185Z,28.87
2022-08-28T21:22:40.103Z,28.86
2022-08-28T21:25:10.603Z,28.86
2022-08-28T21:27:38.178Z,28.70
2022-08-28T21:30:07.851Z,28.52
2022-08-28T21:32:36.287Z,28.52
2022-08-28T21:35:05.363Z,28.34
2022-08-28T21:37:32.997Z,28.22
2022-08-28T21:40:01.025Z,28.06
2022-08-28T21:42:29.220Z,27.94
2022-08-28T21:44:56.352Z,27.89
2022-08-28T21:47:24.666Z,27.81
2022-08-28T21:49:54.445Z,27.82
2022-08-28T21:52:24.444Z,27.79
2022-08-28T21:55:08.248Z,27.83
2022-08-28T21:57:35.652Z,27.74
2022-08-28T22:00:05.991Z,27.64
2022-08-28T22:02:34.028Z,27.63
2022-08-28T22:05:01.330Z,27.66
2022-08-28T22:07:31.006Z,27.68
2022-08-28T22:09:58.353Z,27.69
2022-08-28T22:12:26.024Z,27.67
2022-08-28T22:14:54.383Z,27.54
2022-08-28T22:17:21.882Z,27.60
2022-08-28T22:19:49.273Z,27.54
2022-08-28T22:22:35.410Z,27.67
2022-08-28T22:25:03.499Z,27.83
2022-08-28T22:27:34.900Z,27.93
2022-08-28T22:30:02.282Z,28.04
2022-08-28T22:32:30.674Z,28.19
2022-08-28T22:34:58.013Z,28.29
2022-08-28T22:37:25.997Z,28.23
2022-08-28T22:39:53.580Z,28.29
2022-08-28T22:42:21.029Z,28.45
2022-08-28T22:44:48.255Z,28.36
2022-08-28T22:47:15.627Z,28.54
2022-08-28T22:49:46.158Z,28.59
2022-08-28T22:52:13.443Z,28.51
2022-08-28T22:54:40.647Z,28.37
2022-08-28T22:57:09.066Z,28.09
2022-08-28T22:59:36.336Z,27.98
2022-08-28T23:02:04.039Z,28.11
2022-08-28T23:04:31.695Z,28.02
2022-08-28T23:06:59.003Z,27.98
2022-08-28T23:09:26.548Z,27.84
2022-08-28T23:11:53.925Z,27.73
2022-08-28T23:14:21.219Z,27.56
2022-08-28T23:16:49.240Z,27.41
2022-08-28T23:19:19.826Z,27.24
2022-08-28T23:21:47.752Z,27.18
2022-08-28T23:24:16.728Z,27.11
2022-08-28T23:26:45.907Z,26.99
2022-08-28T23:29:14.018Z,26.86
2022-08-28T23:31:41.378Z,26.82
2022-08-28T23:34:08.883Z,26.80
2022-08-28T23:36:36.930Z,26.73
2022-08-28T23:39:07.127Z,26.85
2022-08-28T23:41:34.928Z,26.87
2022-08-28T23:44:08.282Z,26.94
2022-08-28T23:46:36.968Z,27.04
2022-08-28T23:49:09.998Z,27.11
2022-08-28T23:51:37.680Z,27.07
2022-08-28T23:54:05.230Z,26.95
2022-08-28T23:56:33.916Z,26.90
2022-08-28T23:59:01.303Z,26.87
